createdAt,value
2022-11-09T00:02:25.549Z,11.40
2022-11-09T00:04:55.767Z,11.50
2022-11-09T00:07:30.177Z,11.50
2022-11-09T00:10:03.401Z,11.50
2022-11-09T00:12:34.820Z,11.50
2022-11-09T00:15:08.749Z,11.50
2022-11-09T00:17:38.776Z,11.40
2022-11-09T00:20:13.381Z,11.50
2022-11-09T00:22:40.282Z,11.60
2022-11-09T00:25:08.870Z,11.50
2022-11-09T00:27:40.201Z,11.50
2022-11-09T00:30:11.840Z,11.70
2022-11-09T00:32:44.657Z,11.70
2022-11-09T00:35:14.971Z,11.80
2022-11-09T00:37:45.097Z,11.70
2022-11-09T00:40:18.393Z,11.70
2022-11-09T00:42:47.262Z,11.70
2022-11-09T00:45:14.327Z,11.60
2022-11-09T00:47:43.503Z,11.60
2022-11-09T00:50:16.548Z,11.50
2022-11-09T00:52:48.358Z,11.50
2022-11-09T00:55:24.584Z,11.50
2022-11-09T00:57:55.579Z,11.50
2022-11-09T01:00:24.037Z,11.50
2022-11-09T01:02:51.492Z,11.50
2022-11-09T01:05:29.144Z,11.50
2022-11-09T01:07:56.022Z,11.50
2022-11-09T01:10:26.529Z,11.50
2022-11-09T01:13:02.260Z,11.50
2022-11-09T01:15:29.365Z,11.50
2022-11-09T01:17:58.647Z,11.60
2022-11-09T01:20:25.619Z,11.60
2022-11-09T01:22:52.650Z,11.60
2022-11-09T01:25:19.534Z,11.60
2022-11-09T01:27:46.456Z,11.60
2022-11-09T01:30:18.055Z,11.60
2022-11-09T01:32:51.194Z,11.60
2022-11-09T01:35:24.261Z,11.50
2022-11-09T01:37:51.190Z,11.60
2022-11-09T01:40:24.452Z,11.60
2022-11-09T01:42:51.370Z,11.60
2022-11-09T01:45:30.544Z,11.70
2022-11-09T01:48:10.323Z,11.70
2022-11-09T01:50:44.665Z,11.80
2022-11-09T01:53:21.234Z,11.70
2022-11-09T01:55:55.277Z,11.70
2022-11-09T01:58:27.989Z,11.80
2022-11-09T02:00:59.356Z,11.80
2022-11-09T02:03:31.710Z,11.90
2022-11-09T02:06:09.121Z,11.90
2022-11-09T02:08:40.638Z,11.90
2022-11-09T02:11:11.077Z,11.90
2022-11-09T02:13:48.364Z,11.90
2022-11-09T02:16:17.744Z,11.90
2022-11-09T02:18:58.840Z,11.90
2022-11-09T02:21:30.053Z,11.90
2022-11-09T02:23:58.195Z,11.90
2022-11-09T02:26:36.386Z,11.90
2022-11-09T02:29:07.100Z,11.90
2022-11-09T02:31:39.571Z,11.80
2022-11-09T02:34:13.620Z,11.80
2022-11-09T02:36:43.604Z,11.80
2022-11-09T02:39:23.173Z,11.80
2022-11-09T02:41:54.440Z,11.80
2022-11-09T02:44:22.444Z,11.90
2022-11-09T02:46:52.048Z,11.90
2022-11-09T02:49:18.959Z,11.90
2022-11-09T02:51:49.587Z,11.90
2022-11-09T02:54:16.636Z,11.90
2022-11-09T02:56:43.699Z,12.00
2022-11-09T02:59:16.577Z,11.90
2022-11-09T03:01:48.960Z,11.90
2022-11-09T03:04:15.891Z,12.00
2022-11-09T03:06:42.994Z,12.00
2022-11-09T03:09:13.264Z,12.00
2022-11-09T03:11:47.069Z,12.00
2022-11-09T03:14:14.629Z,12.00
2022-11-09T03:16:43.404Z,12.10
2022-11-09T03:19:16.449Z,12.10
2022-11-09T03:21:46.239Z,12.10
2022-11-09T03:24:17.280Z,12.10
2022-11-09T03:26:46.958Z,12.10
2022-11-09T03:29:21.068Z,12.10
2022-11-09T03:31:47.956Z,12.10
2022-11-09T03:34:20.705Z,12.00
2022-11-09T03:36:50.478Z,12.10
2022-11-09T03:39:22.156Z,12.10
2022-11-09T03:41:52.007Z,12.10
2022-11-09T03:44:21.771Z,12.20
2022-11-09T03:46:48.749Z,12.20
2022-11-09T03:49:15.796Z,12.30
2022-11-09T03:51:50.841Z,12.40
2022-11-09T03:54:19.867Z,12.40
2022-11-09T03:56:50.771Z,12.40
2022-11-09T03:59:23.354Z,12.30
2022-11-09T04:01:50.414Z,12.40
2022-11-09T04:04:23.694Z,12.40
2022-11-09T04:06:53.392Z,12.30
2022-11-09T04:09:22.685Z,12.30
2022-11-09T04:11:50.901Z,12.20
2022-11-09T04:14:23.093Z,12.20
2022-11-09T04:16:56.055Z,12.20
2022-11-09T04:19:23.100Z,12.20
2022-11-09T04:21:50.190Z,12.20
2022-11-09T04:24:17.083Z,12.20
2022-11-09T04:26:44.113Z,12.30
2022-11-09T04:29:12.582Z,12.30
2022-11-09T04:31:42.467Z,12.30
2022-11-09T04:34:11.622Z,12.40
2022-11-09T04:36:39.102Z,12.50
2022-11-09T04:39:05.980Z,12.60
2022-11-09T04:41:35.314Z,12.60
2022-11-09T04:44:05.598Z,12.60
2022-11-09T04:46:36.801Z,12.60
2022-11-09T04:49:03.907Z,12.70
2022-11-09T04:51:33.617Z,12.70
2022-11-09T04:54:10.665Z,12.70
2022-11-09T04:56:40.857Z,12.70
2022-11-09T04:59:08.208Z,12.70
2022-11-09T05:01:45.696Z,12.70
2022-11-09T05:04:15.655Z,12.70
2022-11-09T05:06:42.636Z,12.70
2022-11-09T05:09:15.566Z,12.70
2022-11-09T05:11:42.500Z,12.70
2022-11-09T05:14:09.419Z,12.70
2022-11-09T05:16:36.452Z,12.70
2022-11-09T05:19:04.811Z,12.80
2022-11-09T05:21:31.843Z,12.70
2022-11-09T05:23:58.857Z,12.70
2022-11-09T05:26:28.134Z,12.80
2022-11-09T05:28:55.299Z,12.80
2022-11-09T05:31:23.411Z,12.80
2022-11-09T05:33:51.668Z,12.80
2022-11-09T05:36:20.775Z,12.80
2022-11-09T05:38:48.037Z,12.80
2022-11-09T05:41:15.844Z,12.80
2022-11-09T05:43:44.554Z,12.80
2022-11-09T05:46:12.690Z,12.80
2022-11-09T05:48:40.188Z,12.80
2022-11-09T05:51:10.300Z,12.80
2022-11-09T05:53:50.071Z,12.80
2022-11-09T05:56:17.454Z,12.80
2022-11-09T05:58:44.581Z,12.90
2022-11-09T06:01:14.072Z,12.90
2022-11-09T06:03:43.890Z,12.90
2022-11-09T06:06:16.088Z,12.90
2022-11-09T06:08:43.267Z,12.90
2022-11-09T06:11:23.617Z,13.00
2022-11-09T06:13:51.879Z,13.00
2022-11-09T06:16:27.987Z,13.00
2022-11-09T06:18:57.858Z,13.00
2022-11-09T06:21:37.648Z,13.00
2022-11-09T06:24:05.036Z,13.00
2022-11-09T06:26:36.409Z,13.00
2022-11-09T06:29:04.169Z,13.00
2022-11-09T06:31:34.237Z,13.00
2022-11-09T06:34:10.244Z,12.90
2022-11-09T06:36:37.198Z,12.90
2022-11-09T06:39:04.428Z,12.90
2022-11-09T06:41:35.956Z,12.90
2022-11-09T06:44:03.196Z,12.80
2022-11-09T06:46:30.223Z,12.80
2022-11-09T06:48:57.434Z,12.80
2022-11-09T06:51:27.493Z,12.90
2022-11-09T06:53:57.290Z,12.90
2022-11-09T06:56:24.317Z,13.00
2022-11-09T06:58:52.694Z,13.00
2022-11-09T07:01:27.888Z,13.00
2022-11-09T07:03:54.982Z,13.00
2022-11-09T07:06:22.317Z,13.00
2022-11-09T07:08:49.300Z,13.00
2022-11-09T07:11:22.662Z,13.00
2022-11-09T07:13:53.411Z,13.00
2022-11-09T07:16:24.653Z,13.10
2022-11-09T07:18:54.485Z,13.10
2022-11-09T07:21:21.540Z,13.10
2022-11-09T07:23:50.079Z,13.10
2022-11-09T07:26:17.639Z,13.10
2022-11-09T07:28:44.719Z,13.10
2022-11-09T07:31:17.393Z,13.00
2022-11-09T07:33:45.677Z,13.10
2022-11-09T07:36:15.681Z,13.10
2022-11-09T07:38:47.442Z,13.10
2022-11-09T07:41:17.181Z,13.20
2022-11-09T07:43:44.712Z,13.10
2022-11-09T07:46:15.525Z,13.10
2022-11-09T07:48:42.927Z,13.10
2022-11-09T07:51:11.240Z,13.20
2022-11-09T07:53:44.425Z,13.10
2022-11-09T07:56:11.625Z,13.20
2022-11-09T07:58:38.759Z,13.20
2022-11-09T08:01:08.551Z,13.10
2022-11-09T08:03:38.526Z,13.10
2022-11-09T08:06:06.084Z,13.10
2022-11-09T08:08:35.501Z,13.10
2022-11-09T08:11:04.780Z,13.10
2022-11-09T08:13:32.158Z,13.20
2022-11-09T08:16:03.001Z,13.10
2022-11-09T08:18:35.528Z,13.10
2022-11-09T08:21:03.638Z,13.10
2022-11-09T08:23:34.992Z,13.20
2022-11-09T08:26:06.065Z,13.10
2022-11-09T08:28:36.233Z,13.20
2022-11-09T08:31:08.701Z,13.20
2022-11-09T08:33:47.182Z,13.20
2022-11-09T08:36:17.219Z,13.20
2022-11-09T08:38:46.225Z,13.20
2022-11-09T08:41:18.394Z,13.20
2022-11-09T08:43:48.231Z,13.20
2022-11-09T08:46:18.203Z,13.30
2022-11-09T08:48:45.241Z,13.40
2022-11-09T08:51:15.304Z,13.40
2022-11-09T08:53:42.294Z,13.50
2022-11-09T08:56:20.796Z,13.50
2022-11-09T08:58:47.922Z,13.50
2022-11-09T09:01:17.246Z,13.60
2022-11-09T09:03:47.423Z,13.60
2022-11-09T09:06:14.465Z,13.60
2022-11-09T09:08:44.218Z,13.70
2022-11-09T09:11:16.674Z,13.60
2022-11-09T09:13:46.709Z,13.70
2022-11-09T09:16:16.660Z,13.70
2022-11-09T09:18:49.649Z,13.70
2022-11-09T09:21:19.693Z,13.70
2022-11-09T09:23:49.534Z,13.80
2022-11-09T09:26:18.282Z,13.80
2022-11-09T09:28:51.962Z,13.80
2022-11-09T09:31:19.263Z,13.90
2022-11-09T09:33:49.201Z,14.00
2022-11-09T09:36:18.674Z,14.00
2022-11-09T09:38:45.876Z,14.00
2022-11-09T09:41:23.254Z,14.10
2022-11-09T09:43:55.119Z,14.20
2022-11-09T09:46:33.828Z,14.20
2022-11-09T09:49:06.194Z,14.20
2022-11-09T09:51:42.612Z,14.30
2022-11-09T09:54:20.128Z,14.20
2022-11-09T09:56:51.158Z,14.20
2022-11-09T09:59:25.753Z,14.20
2022-11-09T10:01:53.671Z,14.20
2022-11-09T10:04:23.739Z,14.20
2022-11-09T10:07:04.408Z,14.20
2022-11-09T10:09:56.252Z,14.20
2022-11-09T10:12:34.795Z,14.30
2022-11-09T10:15:15.942Z,14.40
2022-11-09T10:18:09.343Z,14.50
2022-11-09T10:20:59.873Z,14.60
2022-11-09T10:23:49.090Z,14.70
2022-11-09T10:26:23.102Z,14.70
2022-11-09T10:31:47.973Z,14.90
2022-11-09T10:34:19.478Z,14.90
2022-11-09T10:36:59.528Z,14.90
2022-11-09T10:39:41.347Z,14.90
2022-11-09T10:42:13.521Z,15.00
2022-11-09T10:44:57.696Z,14.90
2022-11-09T10:47:30.557Z,14.90
2022-11-09T10:50:22.149Z,15.00
2022-11-09T10:52:49.137Z,15.10
2022-11-09T10:55:28.641Z,15.10
2022-11-09T10:57:59.759Z,15.10
2022-11-09T11:00:33.796Z,15.10
2022-11-09T11:03:11.877Z,15.20
2022-11-09T11:05:39.758Z,15.20
2022-11-09T11:08:37.172Z,15.20
2022-11-09T11:11:37.610Z,15.10
2022-11-09T11:14:19.854Z,15.20
2022-11-09T11:16:52.964Z,15.20
2022-11-09T11:19:33.809Z,15.30
2022-11-09T11:22:23.289Z,15.30
2022-11-09T11:24:59.319Z,15.30
2022-11-09T11:27:33.088Z,15.30
2022-11-09T11:30:08.825Z,15.30
2022-11-09T11:32:37.213Z,15.40
2022-11-09T11:35:12.468Z,15.40
2022-11-09T11:38:02.370Z,15.40
2022-11-09T11:41:00.053Z,15.50
2022-11-09T11:43:41.994Z,15.50
2022-11-09T11:46:18.192Z,15.40
2022-11-09T11:49:14.835Z,15.40
2022-11-09T11:54:58.140Z,15.40
2022-11-09T11:57:51.105Z,15.50
2022-11-09T12:00:20.431Z,15.50
2022-11-09T12:03:30.724Z,15.50
2022-11-09T12:06:39.681Z,15.50
2022-11-09T12:09:33.614Z,15.50
2022-11-09T12:12:17.342Z,15.60
2022-11-09T12:15:03.793Z,15.60
2022-11-09T12:17:42.020Z,15.60
2022-11-09T12:20:26.189Z,15.60
2022-11-09T12:23:17.296Z,15.60
2022-11-09T12:25:51.369Z,15.60
2022-11-09T12:28:56.061Z,15.50
2022-11-09T12:31:39.447Z,15.50
2022-11-09T12:34:25.725Z,15.50
2022-11-09T12:36:58.157Z,15.50
2022-11-09T12:39:35.900Z,15.50
2022-11-09T12:42:10.158Z,15.50
2022-11-09T12:44:45.108Z,15.50
2022-11-09T12:47:17.388Z,15.40
2022-11-09T12:49:46.555Z,15.40
2022-11-09T12:52:19.421Z,15.40
2022-11-09T12:54:49.991Z,15.40
2022-11-09T12:57:24.826Z,15.40
2022-11-09T12:59:54.292Z,15.30
2022-11-09T13:02:53.056Z,15.40
2022-11-09T13:05:37.460Z,15.40
2022-11-09T13:08:19.432Z,15.40
2022-11-09T13:11:08.124Z,15.30
2022-11-09T13:13:35.557Z,15.30
2022-11-09T13:16:34.829Z,15.30
2022-11-09T13:19:02.191Z,15.30
2022-11-09T13:21:49.530Z,15.40
2022-11-09T13:24:54.192Z,15.40
2022-11-09T13:27:53.139Z,15.30
2022-11-09T13:30:50.354Z,15.30
2022-11-09T13:33:25.809Z,15.30
2022-11-09T13:36:22.104Z,15.30
2022-11-09T13:39:38.123Z,15.30
2022-11-09T13:42:28.202Z,15.30
2022-11-09T13:45:24.547Z,15.30
2022-11-09T13:47:53.008Z,15.20
2022-11-09T13:50:22.898Z,15.20
2022-11-09T13:52:52.641Z,15.20
2022-11-09T13:55:35.879Z,15.20
2022-11-09T13:58:14.566Z,15.20
2022-11-09T14:00:47.444Z,15.20
2022-11-09T14:03:21.192Z,15.20
2022-11-09T14:05:52.483Z,15.20
2022-11-09T14:08:25.476Z,15.20
2022-11-09T14:11:27.232Z,15.20
2022-11-09T14:14:23.364Z,15.20
2022-11-09T14:17:10.946Z,15.10
2022-11-09T14:20:01.217Z,15.10
2022-11-09T14:22:34.232Z,15.10
2022-11-09T14:25:07.183Z,15.10
2022-11-09T14:27:34.178Z,15.10
2022-11-09T14:30:25.542Z,15.10
2022-11-09T14:32:55.546Z,15.10
2022-11-09T14:35:29.903Z,15.10
2022-11-09T14:37:59.124Z,15.10
2022-11-09T14:40:31.231Z,15.10
2022-11-09T14:43:05.832Z,15.10
2022-11-09T14:45:32.820Z,15.10
2022-11-09T14:48:04.921Z,15.10
2022-11-09T14:50:36.933Z,15.00
2022-11-09T14:53:05.825Z,15.00
2022-11-09T14:55:35.401Z,15.00
2022-11-09T14:58:03.364Z,15.00
2022-11-09T15:00:34.844Z,15.00
2022-11-09T15:03:31.354Z,15.00
2022-11-09T15:06:07.652Z,14.90
2022-11-09T15:08:36.662Z,14.90
2022-11-09T15:11:04.181Z,14.90
2022-11-09T15:13:37.236Z,14.90
2022-11-09T15:16:06.200Z,14.90
2022-11-09T15:18:41.964Z,14.90
2022-11-09T15:21:15.603Z,14.90
2022-11-09T15:23:50.202Z,14.80
2022-11-09T15:26:37.047Z,14.90
2022-11-09T15:29:36.926Z,14.80
2022-11-09T15:32:17.667Z,14.80
2022-11-09T15:34:57.695Z,14.70
2022-11-09T15:37:31.190Z,14.70
2022-11-09T15:40:11.435Z,14.60
2022-11-09T15:42:43.522Z,14.60
2022-11-09T15:45:16.247Z,14.60
2022-11-09T15:47:51.429Z,14.60
2022-11-09T15:50:24.175Z,14.60
2022-11-09T15:52:51.937Z,14.60
2022-11-09T15:55:23.029Z,14.60
2022-11-09T15:57:52.401Z,14.60
2022-11-09T16:00:21.954Z,14.50
2022-11-09T16:02:49.249Z,14.50
2022-11-09T16:05:25.594Z,14.40
2022-11-09T16:07:54.690Z,14.40
2022-11-09T16:10:27.295Z,14.40
2022-11-09T16:12:56.091Z,14.40
2022-11-09T16:15:26.850Z,14.40
2022-11-09T16:17:53.813Z,14.30
2022-11-09T16:20:24.392Z,14.30
2022-11-09T16:22:51.364Z,14.20
2022-11-09T16:25:28.194Z,14.20
2022-11-09T16:28:03.917Z,14.20
2022-11-09T16:30:31.631Z,14.20
2022-11-09T16:33:01.353Z,14.20
2022-11-09T16:35:34.246Z,14.20
2022-11-09T16:38:04.299Z,14.20
2022-11-09T16:40:31.859Z,14.20
2022-11-09T16:43:00.443Z,14.10
2022-11-09T16:45:32.093Z,14.10
2022-11-09T16:48:07.909Z,14.10
2022-11-09T16:50:36.389Z,14.00
2022-11-09T16:53:03.520Z,14.10
2022-11-09T16:55:30.437Z,14.00
2022-11-09T16:57:57.515Z,14.00
2022-11-09T17:00:37.483Z,14.00
2022-11-09T17:03:11.486Z,14.00
2022-11-09T17:05:45.972Z,14.00
2022-11-09T17:08:13.852Z,13.90
2022-11-09T17:10:45.243Z,13.90
2022-11-09T17:13:14.727Z,14.00
2022-11-09T17:15:42.521Z,14.00
2022-11-09T17:18:09.998Z,14.00
2022-11-09T17:20:45.375Z,14.00
2022-11-09T17:23:14.172Z,14.00
2022-11-09T17:25:54.432Z,13.90
2022-11-09T17:28:21.718Z,13.90
2022-11-09T17:30:57.719Z,14.00
2022-11-09T17:33:24.864Z,14.00
2022-11-09T17:36:11.467Z,14.00
2022-11-09T17:38:41.553Z,14.10
2022-11-09T17:41:11.105Z,14.00
2022-11-09T17:43:40.541Z,14.10
2022-11-09T17:46:09.706Z,14.00
2022-11-09T17:48:38.631Z,14.00
2022-11-09T17:51:08.205Z,13.90
2022-11-09T17:53:38.548Z,14.00
2022-11-09T17:56:09.985Z,14.00
2022-11-09T17:58:43.274Z,14.10
2022-11-09T18:01:13.806Z,14.10
2022-11-09T18:03:41.400Z,14.10
2022-11-09T18:06:21.859Z,14.10
2022-11-09T18:09:17.770Z,14.00
2022-11-09T18:11:38.937Z,14.00
2022-11-09T18:14:06.828Z,14.00
2022-11-09T18:16:35.064Z,13.90
2022-11-09T18:19:10.264Z,13.80
2022-11-09T18:21:44.782Z,13.60
2022-11-09T18:24:11.712Z,13.50
2022-11-09T18:26:41.987Z,13.50
2022-11-09T18:29:08.892Z,13.50
2022-11-09T18:31:38.934Z,13.50
2022-11-09T18:34:10.688Z,13.50
2022-11-09T18:36:48.441Z,13.50
2022-11-09T18:39:21.689Z,13.30
2022-11-09T18:41:54.312Z,13.30
2022-11-09T18:44:21.383Z,13.30
2022-11-09T18:46:51.306Z,13.40
2022-11-09T18:49:26.741Z,13.30
2022-11-09T18:51:55.178Z,13.30
2022-11-09T18:54:23.113Z,13.40
2022-11-09T18:56:55.876Z,13.50
2022-11-09T18:59:23.034Z,13.50
2022-11-09T19:01:50.069Z,13.50
2022-11-09T19:04:18.981Z,13.60
2022-11-09T19:06:59.822Z,13.50
2022-11-09T19:09:30.359Z,13.40
2022-11-09T19:12:03.386Z,13.20
2022-11-09T19:14:30.698Z,13.10
2022-11-09T19:17:05.569Z,13.00
2022-11-09T19:19:32.711Z,12.90
2022-11-09T19:22:01.076Z,12.80
2022-11-09T19:24:31.270Z,12.70
2022-11-09T19:27:01.463Z,12.60
2022-11-09T19:29:34.506Z,12.60
2022-11-09T19:32:01.465Z,12.70
2022-11-09T19:34:28.937Z,12.70
2022-11-09T19:37:00.281Z,12.60
2022-11-09T19:39:35.306Z,12.60
2022-11-09T19:42:03.075Z,12.50
2022-11-09T19:44:30.065Z,12.60
2022-11-09T19:46:58.440Z,12.50
2022-11-09T19:49:27.451Z,12.50
2022-11-09T19:51:55.448Z,12.30
2022-11-09T19:54:35.805Z,12.30
2022-11-09T19:57:12.994Z,12.20
2022-11-09T19:59:40.099Z,12.20
2022-11-09T20:02:10.817Z,12.10
2022-11-09T20:04:37.848Z,12.10
2022-11-09T20:07:08.801Z,12.00
2022-11-09T20:09:44.598Z,11.90
2022-11-09T20:12:39.939Z,11.80
2022-11-09T20:15:07.947Z,11.90
2022-11-09T20:17:35.128Z,11.90
2022-11-09T20:20:06.945Z,11.90
2022-11-09T20:22:33.846Z,11.90
2022-11-09T20:25:02.363Z,11.80
2022-11-09T20:27:32.328Z,11.70
2022-11-09T20:29:59.728Z,11.70
2022-11-09T20:32:38.749Z,11.70
2022-11-09T20:35:15.646Z,11.80
2022-11-09T20:37:42.596Z,12.00
2022-11-09T20:42:58.069Z,12.00
2022-11-09T20:45:25.504Z,11.90
2022-11-09T20:48:19.466Z,11.80
2022-11-09T20:50:42.976Z,11.80
2022-11-09T20:53:10.141Z,11.90
2022-11-09T20:55:39.490Z,11.90
2022-11-09T20:58:09.417Z,12.00
2022-11-09T21:00:37.523Z,12.10
2022-11-09T21:03:05.828Z,12.00
2022-11-09T21:05:33.487Z,12.00
2022-11-09T21:10:47.805Z,11.80
2022-11-09T21:13:15.728Z,11.80
2022-11-09T21:15:45.444Z,11.70
2022-11-09T21:20:53.740Z,11.60
2022-11-09T21:23:30.894Z,11.60
2022-11-09T21:26:20.862Z,11.50
2022-11-09T21:29:21.865Z,11.40
2022-11-09T21:31:48.757Z,11.40
2022-11-09T21:34:18.970Z,11.40
2022-11-09T21:36:48.678Z,11.50
2022-11-09T21:39:15.773Z,11.60
2022-11-09T21:41:44.736Z,11.70
2022-11-09T21:44:12.643Z,11.80
2022-11-09T21:46:48.922Z,11.80
2022-11-09T21:49:22.058Z,11.80
2022-11-09T21:51:52.204Z,11.90
2022-11-09T21:54:20.338Z,11.70
2022-11-09T21:56:49.449Z,11.70
2022-11-09T21:59:17.339Z,11.80
2022-11-09T22:01:49.834Z,11.80
2022-11-09T22:04:17.040Z,11.80
2022-11-09T22:06:44.241Z,11.90
2022-11-09T22:09:15.306Z,12.00
2022-11-09T22:12:01.408Z,12.00
2022-11-09T22:14:51.601Z,12.00
2022-11-09T22:17:18.554Z,12.00
2022-11-09T22:20:07.695Z,12.00
2022-11-09T22:22:40.526Z,12.00
2022-11-09T22:25:08.880Z,12.00
2022-11-09T22:27:41.871Z,11.80
2022-11-09T22:30:14.590Z,11.70
2022-11-09T22:32:41.629Z,11.60
2022-11-09T22:35:10.562Z,11.40
2022-11-09T22:37:44.768Z,11.50
2022-11-09T22:40:14.860Z,11.40
2022-11-09T22:42:55.734Z,11.30
2022-11-09T22:45:31.743Z,11.30
2022-11-09T22:48:10.961Z,11.30
2022-11-09T22:50:41.427Z,11.40
2022-11-09T22:53:08.334Z,11.40
2022-11-09T22:55:35.350Z,11.40
2022-11-09T22:58:02.399Z,11.40
2022-11-09T23:00:37.552Z,11.40
2022-11-09T23:03:04.570Z,11.40
2022-11-09T23:05:34.386Z,11.40
2022-11-09T23:08:08.638Z,11.30
2022-11-09T23:10:36.573Z,11.40
2022-11-09T23:13:07.173Z,11.50
2022-11-09T23:15:34.354Z,11.40
2022-11-09T23:18:21.215Z,11.40
2022-11-09T23:20:51.333Z,11.40
2022-11-09T23:23:21.181Z,11.30
2022-11-09T23:25:54.283Z,11.30
2022-11-09T23:28:30.317Z,11.30
2022-11-09T23:30:59.777Z,11.30
2022-11-09T23:33:36.194Z,11.30
2022-11-09T23:36:06.167Z,11.20
2022-11-09T23:38:38.159Z,11.20
2022-11-09T23:41:11.987Z,11.10
2022-11-09T23:43:39.356Z,11.10
2022-11-09T23:46:09.029Z,11.10
2022-11-09T23:48:37.899Z,11.00
2022-11-09T23:51:06.965Z,11.00
2022-11-09T23:53:35.329Z,10.80
2022-11-09T23:56:09.114Z,10.50
2022-11-09T23:58:39.055Z,10.40
